EST,Max TemperatureF,Mean TemperatureF,Min TemperatureF,Max Dew PointF,MeanDew PointF,Min DewpointF,Max Humidity, Mean Humidity, Min Humidity, Max Sea Level PressureIn, Mean Sea Level PressureIn, Min Sea Level PressureIn, Max VisibilityMiles, Mean VisibilityMiles, Min VisibilityMiles, Max Wind SpeedMPH, Mean Wind SpeedMPH, Max Gust SpeedMPH,PrecipitationIn, CloudCover, Events, WindDirDegrees
2013-1-1,75,58,47,59,54,46,100,86,67,30.20,30.07,29.96,10,10,7,10,3,16,0.00,4,,198
2013-1-2,75,56,50,64,57,51,100,94,80,30.12,30.02,29.93,10,9,3,14,4,24,0.00,8,Rain,280
2013-1-3,75,46,39,52,45,40,100,95,83,30.27,30.19,30.09,10,9,4,7,3,,0.00,6,Rain,336
2013-1-4,75,44,34,44,40,35,100,92,64,30.36,30.32,30.27,10,8,0,7,2,,0.00,2,Fog,350
2013-1-5,75,43,30,46,35,29,100,76,43,30.39,30.33,30.28,10,10,10,7,2,,0.00,1,Rain,17
2013-1-6,53,48,44,45,43,40,100,83,59,30.29,30.21,30.14,10,10,10,7,1,,0.00,6,Rain,351
2013-1-7,75,44,33,43,38,34,100,78,55,30.35,30.30,30.24,10,10,5,13,5,18,0.00,1,,45
2013-1-8,75,52,42,54,45,37,92,80,70,30.36,30.30,30.26,10,10,10,8,4,,0.00,6,,51
2013-1-9,75,57,47,64,56,48,100,94,81,30.40,30.34,30.29,10,10,5,6,3,,0.00,5,,56
2013-1-10,75,62,58,66,62,59,100,100,100,30.39,30.34,30.29,10,4,0,12,4,16,0.00,8,Fog-Rain,89
2013-1-11,75,66,58,65,63,59,100,92,71,30.27,30.21,30.16,10,8,2,8,4,,0.00,4,,170
2013-1-12,77,66,55,63,59,56,100,85,57,30.20,30.15,30.09,10,8,2,8,2,,0.00,1,,186
2013-1-13,77,66,58,64,61,58,100,88,65,30.17,30.11,30.07,10,10,5,9,5,,0.00,2,,175
2013-1-14,77,66,57,66,62,58,100,88,64,30.18,30.13,30.10,10,10,4,9,4,16,0.00,1,,188
2013-1-15,77,66,56,62,60,56,100,81,57,30.15,30.09,30.04,10,10,5,9,3,16,0.00,3,,184
2013-1-16,78,68,57,64,61,58,100,85,53,30.07,30.01,29.95,10,9,4,9,4,16,0.00,2,,202
2013-1-17,78,52,39,64,51,34,100,91,66,30.17,29.97,29.88,10,9,2,17,7,28,0.00,7,Rain,228
2013-1-18,78,46,36,39,33,27,100,68,32,30.47,30.39,30.17,10,10,10,14,7,21,0.00,0,,31
2013-1-19,59,46,34,48,38,28,100,76,57,30.46,30.35,30.25,10,10,2,7,3,,0.00,2,,56
2013-1-20,65,51,37,46,42,38,100,80,43,30.25,30.17,30.10,10,7,1,7,1,,0.00,0,,314
2013-1-21,65,49,35,44,40,35,100,74,42,30.17,30.10,30.04,10,9,2,8,1,,0.00,0,,294
2013-1-22,65,44,33,39,29,24,92,61,34,30.32,30.24,30.14,10,10,10,10,3,17,0.00,0,,312
2013-1-23,65,42,28,41,33,24,100,72,40,30.43,30.32,30.24,10,10,7,8,1,,0.00,1,,270
2013-1-24,67,57,46,51,44,30,87,66,48,30.35,30.24,30.19,10,10,10,13,6,21,0.00,2,,286
2013-1-25,67,46,35,47,38,26,97,76,61,30.39,30.28,30.16,10,10,7,10,5,20,0.00,3,,84
2013-1-26,67,53,39,56,50,36,99,81,52,30.28,30.20,30.15,10,10,7,9,3,,0.00,2,,264
2013-1-27,67,50,38,47,43,36,100,81,57,30.44,30.37,30.28,10,9,4,10,4,,0.00,2,,79
2013-1-28,68,57,46,60,53,42,100,89,71,30.42,30.34,30.27,10,8,1,6,2,,0.00,6,,112
2013-1-29,77,64,52,65,60,52,100,85,55,30.27,30.17,30.07,10,7,0,9,4,17,0.00,4,Fog,171
2013-1-30,77,64,51,67,62,49,100,87,60,30.07,29.87,29.66,10,10,2,20,9,34,0.00,7,Rain,196
2013-1-31,77,46,38,49,32,27,89,61,37,30.23,30.09,29.85,10,10,10,15,8,25,0.00,1,,287